Big Pine Key, Florida
Current Conditions -  °F | °C
As of 1:53 PM on Thursday 23 Oct 2014 (Local Time) from KMTH Reporting Station
Moderate Rain Moderate Rain  
Wind Chill: 77°   Ceiling: 1900
Heat Index: 78°   Visibility: 2mi
Dew Point: 76°   Wind: 9mph
Humidity: 96%   Direction: 120°ESE
Pressure: 29.85"   Gusts: NA
Location:  24.67°N, 81.35°W
Report Text: KMTH 231753Z AUTO 12008KT 2SM RA BR BKN019 OVC025 25/24 A2985 RMK AO2 RAB11 SLP107 P0025 60025 T02500244 10278 20244 58017 $
Loading
Personal Weather Stations






























Interactive Weather Map
Tropical Storm Tracking
New forecast layout! Learn more

10-Day Weather Forecast

Advertisements
Track Severe Weather on mobile